Time;durP1;ratioP1;P1;durP2;ratioP2;P2;SDS_P1;SDS_P2;PMS_P1;PMS_P2;Temp;Humidity;BMP_temperature;BMP_pressure;BME280_temperature;BME280_humidity;BME280_pressure;Samples;Min_cycle;Max_cycle;Signal;HPM_P1;HPM_P2
2021/10/28 00:14:20;;;;;;;11.10;6.70;;;6.20;99.90;;;;;;5055521;28;20315;-63
2021/10/28 00:16:48;;;;;;;7.50;5.40;;;6.20;99.90;;;;;;5054750;28;20514;-64
2021/10/28 00:19:15;;;;;;;8.27;5.80;;;6.20;99.90;;;;;;5055058;28;20297;-63
2021/10/28 00:21:42;;;;;;;7.80;6.07;;;6.20;99.90;;;;;;5055154;28;20184;-63
2021/10/28 00:24:10;;;;;;;13.02;6.57;;;6.10;99.90;;;;;;5073297;28;20186;-63
2021/10/28 00:26:38;;;;;;;8.35;5.28;;;6.10;99.90;;;;;;5074632;28;20184;-64
2021/10/28 00:29:07;;;;;;;6.38;5.32;;;6.00;99.90;;;;;;5075007;28;20309;-64
2021/10/28 00:31:37;;;;;;;6.63;5.93;;;6.00;99.90;;;;;;5075031;28;20223;-64
2021/10/28 00:34:03;;;;;;;8.80;5.63;;;6.00;99.90;;;;;;5075151;28;20201;-63
2021/10/28 00:36:29;;;;;;;14.57;6.03;;;6.00;99.90;;;;;;5074508;28;20270;-63
2021/10/28 00:38:55;;;;;;;7.82;5.57;;;5.90;99.90;;;;;;5074689;28;20587;-63
2021/10/28 00:41:22;;;;;;;9.60;6.57;;;5.90;99.90;;;;;;5074917;28;20171;-63
2021/10/28 00:43:54;;;;;;;9.20;6.10;;;5.90;99.90;;;;;;5075262;28;20173;-64
2021/10/28 00:46:23;;;;;;;9.95;5.47;;;5.90;99.90;;;;;;5074218;28;20169;-63
2021/10/28 00:48:49;;;;;;;5.03;4.43;;;5.90;99.90;;;;;;5074277;28;20695;-63
2021/10/28 00:51:19;;;;;;;7.05;4.45;;;5.90;99.90;;;;;;5074523;28;20203;-63
2021/10/28 00:53:45;;;;;;;6.25;5.65;;;5.90;99.90;;;;;;5074631;28;20172;-63
2021/10/28 00:56:11;;;;;;;11.20;5.95;;;5.90;99.90;;;;;;5074436;28;20176;-62
2021/10/28 00:58:37;;;;;;;8.52;6.65;;;5.90;99.90;;;;;;5074020;28;20192;-63
2021/10/28 01:01:05;;;;;;;6.97;4.93;;;5.80;99.90;;;;;;5075027;28;20177;-63
2021/10/28 01:03:31;;;;;;;9.10;6.50;;;5.70;99.90;;;;;;5074747;28;20409;-64
2021/10/28 01:05:58;;;;;;;8.25;4.60;;;5.70;99.90;;;;;;5074444;28;20208;-63
2021/10/28 01:08:25;;;;;;;8.52;6.20;;;5.70;99.90;;;;;;5073807;28;20201;-63
2021/10/28 01:10:51;;;;;;;8.90;6.55;;;5.70;99.90;;;;;;5074317;28;20192;-62
2021/10/28 01:13:19;;;;;;;8.35;6.40;;;5.70;99.90;;;;;;5074061;28;20160;-63
2021/10/28 01:15:46;;;;;;;7.72;5.70;;;5.70;99.90;;;;;;5073894;28;20166;-63
2021/10/28 01:18:13;;;;;;;12.63;6.78;;;5.60;99.90;;;;;;5073512;28;20216;-64
2021/10/28 01:20:41;;;;;;;6.72;5.50;;;5.60;99.90;;;;;;5074069;28;20165;-63
2021/10/28 01:23:09;;;;;;;10.15;6.88;;;5.60;99.90;;;;;;5072582;28;20272;-63
2021/10/28 01:25:36;;;;;;;8.02;7.22;;;5.60;99.90;;;;;;5073394;28;20170;-63
2021/10/28 01:28:02;;;;;;;12.52;5.85;;;5.60;99.90;;;;;;5073310;28;20205;-63
2021/10/28 01:30:28;;;;;;;6.93;5.72;;;5.50;99.90;;;;;;5073748;28;20545;-64
2021/10/28 01:32:53;;;;;;;6.63;6.00;;;5.50;99.90;;;;;;5073778;28;20168;-64
2021/10/28 01:35:19;;;;;;;7.83;6.97;;;5.50;99.90;;;;;;5073604;28;20165;-63
2021/10/28 01:37:46;;;;;;;16.57;6.90;;;5.50;99.90;;;;;;5073163;28;20189;-63
2021/10/28 01:40:12;;;;;;;10.27;7.15;;;5.50;99.90;;;;;;5073562;28;20183;-62
2021/10/28 01:42:49;;;;;;;13.93;7.30;;;5.50;99.90;;;;;;5073748;28;20177;-62
2021/10/28 01:45:16;;;;;;;6.90;5.57;;;5.50;99.90;;;;;;5073801;28;20168;-63
2021/10/28 01:47:42;;;;;;;12.82;6.53;;;5.40;99.90;;;;;;5073290;28;20192;-63
2021/10/28 01:50:09;;;;;;;10.03;5.80;;;5.40;99.90;;;;;;5073459;28;20223;-63
2021/10/28 01:52:37;;;;;;;8.63;5.22;;;5.40;99.90;;;;;;5073419;28;20180;-63
2021/10/28 01:55:06;;;;;;;10.02;7.20;;;5.30;99.90;;;;;;5073235;28;20201;-63
2021/10/28 01:57:31;;;;;;;14.45;8.35;;;5.30;99.90;;;;;;5073107;28;20553;-63
2021/10/28 01:59:57;;;;;;;12.20;7.50;;;5.30;99.90;;;;;;5073504;28;20211;-64
2021/10/28 02:02:22;;;;;;;11.77;7.63;;;5.30;99.90;;;;;;5073463;28;20705;-64
2021/10/28 02:04:48;;;;;;;10.57;8.20;;;5.30;99.90;;;;;;5073426;28;20192;-64
2021/10/28 02:07:14;;;;;;;13.75;8.50;;;5.30;99.90;;;;;;5072829;28;20633;-64
2021/10/28 02:09:40;;;;;;;8.40;6.30;;;5.40;99.90;;;;;;5073337;28;20188;-62
2021/10/28 02:12:07;;;;;;;11.90;8.43;;;5.30;99.90;;;;;;5073130;28;20248;-62
2021/10/28 02:14:32;;;;;;;10.35;6.32;;;5.30;99.90;;;;;;5073248;28;20188;-64
2021/10/28 02:16:58;;;;;;;9.53;5.73;;;5.30;99.90;;;;;;5072749;28;20165;-64
2021/10/28 02:19:24;;;;;;;12.30;6.90;;;5.30;99.90;;;;;;5073194;28;20551;-64
2021/10/28 02:21:49;;;;;;;16.70;9.17;;;5.20;99.90;;;;;;5073214;28;20173;-64
2021/10/28 02:24:15;;;;;;;10.53;8.00;;;5.30;99.90;;;;;;5073095;28;20172;-63
2021/10/28 02:26:41;;;;;;;12.83;8.40;;;5.30;99.90;;;;;;5072720;28;20164;-64
2021/10/28 02:29:06;;;;;;;18.13;9.20;;;5.30;99.90;;;;;;5073202;28;20263;-63
2021/10/28 02:31:33;;;;;;;9.13;6.57;;;5.30;99.90;;;;;;5073009;28;20567;-66
2021/10/28 02:33:58;;;;;;;10.23;7.30;;;5.30;99.90;;;;;;5073181;28;20169;-62
2021/10/28 02:36:24;;;;;;;12.57;7.20;;;5.30;99.90;;;;;;5072490;28;20667;-64
2021/10/28 02:38:50;;;;;;;15.23;9.73;;;5.40;99.90;;;;;;5075389;28;20200;-64
2021/10/28 02:41:16;;;;;;;14.90;7.50;;;5.40;99.90;;;;;;5076996;28;20167;-64
2021/10/28 02:43:42;;;;;;;10.13;7.20;;;5.40;99.90;;;;;;5077167;28;20179;-63
2021/10/28 02:46:08;;;;;;;12.20;8.60;;;5.40;99.90;;;;;;5077073;28;20502;-63
2021/10/28 02:48:34;;;;;;;10.73;9.20;;;5.30;99.90;;;;;;5076681;28;20847;-63
2021/10/28 02:51:00;;;;;;;11.77;6.70;;;5.30;99.90;;;;;;5076765;28;20188;-64
2021/10/28 02:53:25;;;;;;;13.53;8.27;;;5.30;99.90;;;;;;5076841;28;20656;-64
2021/10/28 02:55:51;;;;;;;9.90;5.87;;;5.30;99.90;;;;;;5076617;28;20411;-63
2021/10/28 02:58:17;;;;;;;11.27;6.30;;;5.40;99.90;;;;;;5076492;28;20195;-64
2021/10/28 03:00:43;;;;;;;9.83;6.27;;;5.40;99.90;;;;;;5076812;28;20719;-62
2021/10/28 03:03:10;;;;;;;9.85;7.10;;;5.40;99.90;;;;;;5076727;28;20391;-64
2021/10/28 03:05:36;;;;;;;10.23;6.88;;;5.50;99.90;;;;;;5076495;28;20223;-63
2021/10/28 03:08:02;;;;;;;10.00;7.18;;;5.50;99.90;;;;;;5076188;28;20197;-63
2021/10/28 03:10:28;;;;;;;13.43;7.63;;;5.40;99.90;;;;;;5076595;28;20591;-64
2021/10/28 03:12:55;;;;;;;11.07;7.90;;;5.40;99.90;;;;;;5076607;28;20169;-63
2021/10/28 03:15:22;;;;;;;12.20;7.50;;;5.40;99.90;;;;;;5076411;28;20752;-63
2021/10/28 03:28:21;;;;;;;13.05;9.25;;;5.30;99.90;;;;;;5071032;28;20293;-63
2021/10/28 03:30:49;;;;;;;10.13;7.43;;;5.20;99.90;;;;;;5074759;28;20303;-63
2021/10/28 03:33:18;;;;;;;11.35;7.90;;;5.30;99.90;;;;;;5076186;28;20441;-64
2021/10/28 03:35:45;;;;;;;9.68;7.53;;;5.20;99.90;;;;;;5075853;28;20183;-64
2021/10/28 03:38:40;;;;;;;17.48;6.88;;;5.20;99.90;;;;;;5075629;28;20212;-63
2021/10/28 03:57:42;;;;;;;9.90;7.27;;;5.30;99.90;;;;;;5075435;28;20172;-63
2021/10/28 04:03:36;;;;;;;13.75;9.25;;;5.20;99.90;;;;;;5075649;28;20187;-63
2021/10/28 04:21:38;;;;;;;11.60;7.40;;;4.90;99.90;;;;;;5075327;28;20621;-63
2021/10/28 04:29:43;;;;;;;8.93;6.78;;;4.90;99.90;;;;;;5072973;28;20185;-64
2021/10/28 04:32:09;;;;;;;10.00;6.27;;;4.90;99.90;;;;;;5074819;28;20202;-61
2021/10/28 04:34:35;;;;;;;10.00;6.37;;;4.90;99.90;;;;;;5075072;28;20165;-62
2021/10/28 04:37:01;;;;;;;10.87;7.00;;;4.90;99.90;;;;;;5074759;28;20184;-63
2021/10/28 04:39:26;;;;;;;10.77;7.75;;;4.80;99.90;;;;;;5074894;28;20195;-64
2021/10/28 04:41:52;;;;;;;20.33;7.67;;;4.80;99.90;;;;;;5074715;28;20169;-62
2021/10/28 04:44:18;;;;;;;11.03;6.80;;;4.70;99.90;;;;;;5074541;28;20169;-63
2021/10/28 04:46:43;;;;;;;13.57;8.27;;;4.70;99.90;;;;;;5074450;28;20537;-64
2021/10/28 04:49:09;;;;;;;10.27;8.50;;;4.60;99.90;;;;;;5074561;28;20191;-63
2021/10/28 04:51:35;;;;;;;11.10;7.60;;;4.60;99.90;;;;;;5074451;28;20197;-64
2021/10/28 04:54:00;;;;;;;9.10;6.80;;;4.60;99.90;;;;;;5074829;28;20200;-63
2021/10/28 04:56:26;;;;;;;12.13;6.93;;;4.50;99.90;;;;;;5074024;28;20637;-64
2021/10/28 04:58:52;;;;;;;7.87;5.90;;;4.50;99.90;;;;;;5074512;28;20193;-64
2021/10/28 05:01:18;;;;;;;14.63;8.30;;;4.50;99.90;;;;;;5073623;28;20494;-64
2021/10/28 05:03:44;;;;;;;10.43;6.85;;;4.50;99.90;;;;;;5074464;28;20207;-63
2021/10/28 05:06:10;;;;;;;9.70;5.70;;;4.50;99.90;;;;;;5074137;28;20197;-64
2021/10/28 05:08:35;;;;;;;10.70;7.30;;;4.50;99.90;;;;;;5073807;28;20668;-63
2021/10/28 05:11:01;;;;;;;8.50;5.63;;;4.50;99.90;;;;;;5073881;28;20619;-62
2021/10/28 05:13:27;;;;;;;13.57;7.82;;;4.60;99.90;;;;;;5073969;28;20185;-64
2021/10/28 05:15:54;;;;;;;8.23;6.23;;;4.50;99.90;;;;;;5073935;28;20270;-64
2021/10/28 05:18:23;;;;;;;11.20;6.90;;;4.50;99.90;;;;;;5072167;28;20192;-63
2021/10/28 05:20:49;;;;;;;10.23;6.43;;;4.50;99.90;;;;;;5074069;28;20245;-63
2021/10/28 05:23:15;;;;;;;12.70;8.00;;;4.40;99.90;;;;;;5073730;28;20172;-64
2021/10/28 05:25:41;;;;;;;16.43;6.80;;;4.40;99.90;;;;;;5073889;28;20310;-64
2021/10/28 05:28:07;;;;;;;9.37;6.70;;;4.50;99.90;;;;;;5072175;28;20271;-63
2021/10/28 05:30:33;;;;;;;12.07;7.28;;;4.40;99.90;;;;;;5071625;28;20883;-63
2021/10/28 05:33:00;;;;;;;8.20;6.22;;;4.40;99.90;;;;;;5072337;28;20181;-63
2021/10/28 05:35:27;;;;;;;6.85;4.30;;;4.40;99.90;;;;;;5073212;28;20242;-63
2021/10/28 05:37:53;;;;;;;11.40;7.78;;;4.50;99.90;;;;;;5072639;28;20184;-64
2021/10/28 05:40:20;;;;;;;12.00;8.82;;;4.50;99.90;;;;;;5073274;28;20244;-63
2021/10/28 05:42:50;;;;;;;7.65;5.80;;;4.50;99.90;;;;;;5072999;28;20234;-63
2021/10/28 05:45:20;;;;;;;10.63;7.35;;;4.50;99.90;;;;;;5073716;28;20540;-62
2021/10/28 05:47:48;;;;;;;10.20;5.50;;;4.50;99.90;;;;;;5073010;28;20278;-64
2021/10/28 05:50:15;;;;;;;13.18;7.93;;;4.40;99.90;;;;;;5073354;28;20177;-64
2021/10/28 05:52:41;;;;;;;6.60;4.80;;;4.50;99.90;;;;;;5073238;28;20231;-64
2021/10/28 05:55:07;;;;;;;15.73;7.17;;;4.40;99.90;;;;;;5073297;28;20313;-64
2021/10/28 05:57:33;;;;;;;9.93;6.63;;;4.40;99.90;;;;;;5072597;28;20459;-64
2021/10/28 05:59:59;;;;;;;13.37;7.10;;;4.40;99.90;;;;;;5073210;28;20176;-63
2021/10/28 06:02:25;;;;;;;12.20;7.50;;;4.40;99.90;;;;;;5073793;28;20181;-65
2021/10/28 06:04:51;;;;;;;14.05;7.53;;;4.40;99.90;;;;;;5072964;28;20204;-64
2021/10/28 06:07:16;;;;;;;12.40;8.00;;;4.40;99.90;;;;;;5072653;28;20580;-64
2021/10/28 06:09:42;;;;;;;11.40;8.23;;;4.40;99.90;;;;;;5072906;28;20172;-63
2021/10/28 06:12:09;;;;;;;16.97;9.67;;;4.40;99.90;;;;;;5073153;28;20684;-64
2021/10/28 06:14:35;;;;;;;9.93;6.15;;;4.40;99.90;;;;;;5072925;28;20549;-63
2021/10/28 06:17:08;;;;;;;10.00;7.30;;;4.50;99.90;;;;;;5072184;28;20166;-63
2021/10/28 06:19:35;;;;;;;10.45;9.10;;;4.40;99.90;;;;;;5053220;28;20173;-63
2021/10/28 06:22:01;;;;;;;16.02;9.32;;;4.50;99.90;;;;;;5061914;28;20187;-64
2021/10/28 06:24:27;;;;;;;10.65;7.00;;;4.50;99.90;;;;;;5073014;28;20176;-64
2021/10/28 06:26:53;;;;;;;12.48;8.15;;;4.50;99.90;;;;;;5072722;28;20161;-63
2021/10/28 06:29:19;;;;;;;15.52;10.32;;;4.60;99.90;;;;;;5072673;28;20337;-64
2021/10/28 06:31:48;;;;;;;13.50;8.30;;;4.60;99.90;;;;;;5072472;28;20287;-64
2021/10/28 06:34:21;;;;;;;10.98;7.72;;;4.60;99.90;;;;;;5072606;28;20414;-64
2021/10/28 06:36:48;;;;;;;15.93;9.00;;;4.70;99.90;;;;;;5068082;28;20197;-62
2021/10/28 06:39:15;;;;;;;9.63;6.70;;;4.70;99.90;;;;;;5070330;28;20197;-61
2021/10/28 06:41:41;;;;;;;11.75;6.25;;;4.70;99.90;;;;;;5071182;28;20545;-61
2021/10/28 06:44:07;;;;;;;11.37;7.37;;;4.80;99.90;;;;;;5068333;28;20184;-63
2021/10/28 06:46:34;;;;;;;12.17;7.47;;;4.90;99.90;;;;;;5071393;28;20184;-62
2021/10/28 06:49:02;;;;;;;17.95;8.38;;;4.90;99.90;;;;;;5061239;28;20438;-64
2021/10/28 06:51:30;;;;;;;10.80;8.27;;;5.10;99.90;;;;;;5065673;28;20569;-64
2021/10/28 06:56:56;;;;;;;17.65;11.13;;;5.20;99.90;;;;;;5066617;28;20285;-65
2021/10/28 07:05:05;;;;;;;14.73;9.68;;;5.50;99.90;;;;;;5046958;28;20194;-63
2021/10/28 07:07:34;;;;;;;14.95;7.78;;;5.60;99.90;;;;;;5063785;28;20197;-64
2021/10/28 07:10:08;;;;;;;15.10;9.60;;;5.70;99.90;;;;;;5065211;28;20173;-65
2021/10/28 07:13:04;;;;;;;13.95;9.63;;;5.80;99.90;;;;;;5055969;28;20180;-64
2021/10/28 07:15:50;;;;;;;12.35;9.10;;;6.00;99.90;;;;;;5064915;28;20593;-63
2021/10/28 07:18:37;;;;;;;10.07;8.30;;;6.20;99.90;;;;;;5063096;28;20186;-63
2021/10/28 07:29:06;;;;;;;17.95;10.75;;;6.60;99.90;;;;;;5075959;28;20256;-64
2021/10/28 08:13:27;;;;;;;7.00;6.13;;;15.30;99.90;;;;;;5069881;28;20515;-65
2021/10/28 08:20:30;;;;;;;6.23;4.60;;;18.50;99.90;;;;;;5029508;28;20422;-63
2021/10/28 08:23:05;;;;;;;7.50;5.93;;;18.90;99.50;;;;;;5038654;28;20434;-64
2021/10/28 08:31:00;;;;;;;7.00;4.60;;;19.50;98.20;;;;;;5033933;28;20888;-65
2021/10/28 08:33:26;;;;;;;5.70;5.20;;;19.80;97.60;;;;;;5034026;28;20427;-65
2021/10/28 08:35:54;;;;;;;5.87;5.37;;;20.20;96.40;;;;;;5034502;28;20202;-64
2021/10/28 08:38:21;;;;;;;7.17;5.00;;;20.50;95.80;;;;;;5034232;28;20240;-62
2021/10/28 08:40:50;;;;;;;5.40;4.77;;;20.20;92.70;;;;;;5034145;28;20422;-65
2021/10/28 08:43:17;;;;;;;4.63;4.23;;;20.10;92.70;;;;;;5034798;28;20422;-63
2021/10/28 08:45:44;;;;;;;5.93;4.77;;;20.40;93.60;;;;;;5034724;28;20547;-63
2021/10/28 08:48:10;;;;;;;5.00;4.43;;;20.80;91.00;;;;;;5033822;28;20435;-64
2021/10/28 08:56:12;;;;;;;5.20;4.70;;;21.90;91.90;;;;;;4992946;28;20398;-63
2021/10/28 09:26:53;;;;;;;7.10;5.20;;;23.30;86.40;;;;;;5033440;28;20765;-63
2021/10/28 09:44:07;;;;;;;5.43;4.93;;;23.30;83.10;;;;;;5033528;28;20793;-63
2021/10/28 09:46:43;;;;;;;7.53;6.60;;;23.40;80.80;;;;;;5032783;28;20448;-64
2021/10/28 09:51:57;;;;;;;6.60;6.00;;;23.60;79.80;;;;;;5033594;28;20456;-65
2021/10/28 09:59:46;;;;;;;9.43;6.80;;;23.50;79.40;;;;;;5032377;28;20499;-67
2021/10/28 10:02:26;;;;;;;6.93;6.03;;;23.50;77.10;;;;;;5031935;28;20469;-65
2021/10/28 10:04:53;;;;;;;6.53;5.83;;;23.30;78.30;;;;;;5032037;28;20478;-66
2021/10/28 10:07:21;;;;;;;5.53;4.57;;;23.10;78.70;;;;;;5031097;28;20428;-66
2021/10/28 10:09:47;;;;;;;9.37;6.60;;;23.00;78.60;;;;;;5031171;28;20418;-66
2021/10/28 10:12:14;;;;;;;7.77;6.50;;;22.90;78.70;;;;;;5031872;28;20439;-65
2021/10/28 10:14:41;;;;;;;8.70;6.87;;;22.80;79.30;;;;;;5033238;28;20465;-65
2021/10/28 10:17:08;;;;;;;9.00;6.33;;;22.70;79.00;;;;;;5032493;28;20951;-65
2021/10/28 10:19:37;;;;;;;7.33;6.60;;;22.60;80.00;;;;;;5032798;28;20387;-64
2021/10/28 10:22:30;;;;;;;6.17;5.57;;;22.50;81.20;;;;;;5033041;28;20501;-65
2021/10/28 11:28:01;;;;;;;9.03;5.80;;;15.70;96.70;;;;;;4994169;28;20456;-64
2021/10/28 12:21:21;;;;;;;7.57;6.30;;;15.40;99.20;;;;;;5035586;28;20855;-66
2021/10/28 12:23:51;;;;;;;8.40;6.40;;;15.40;99.30;;;;;;5022771;28;20424;-67
2021/10/28 12:43:44;;;;;;;5.20;4.63;;;15.40;99.80;;;;;;5033003;28;20459;-66
2021/10/28 12:49:34;;;;;;;7.40;6.13;;;15.50;99.70;;;;;;5034285;28;20830;-66
2021/10/28 12:52:23;;;;;;;7.83;5.90;;;15.50;99.60;;;;;;5034408;28;20460;-66
2021/10/28 13:50:03;;;;;;;6.90;4.70;;;15.70;98.80;;;;;;5033482;28;20396;-67
2021/10/28 13:57:54;;;;;;;7.27;5.30;;;15.60;98.80;;;;;;5033194;28;20434;-67
2021/10/28 14:24:59;;;;;;;8.77;4.90;;;15.60;98.30;;;;;;5015741;28;20398;-66
2021/10/28 14:27:44;;;;;;;11.20;5.80;;;15.60;97.90;;;;;;5012839;28;20880;-66
2021/10/28 15:03:00;;;;;;;4.70;4.27;;;15.40;98.40;;;;;;5020066;28;20489;-67
2021/10/28 15:35:31;;;;;;;7.53;6.17;;;14.90;99.90;;;;;;5019529;28;20401;-67
2021/10/28 15:47:08;;;;;;;8.63;7.00;;;14.60;99.90;;;;;;5019407;28;20994;-67
2021/10/28 16:24:09;;;;;;;10.17;6.30;;;13.10;99.90;;;;;;5033657;28;20530;-68
2021/10/28 16:26:36;;;;;;;15.17;11.20;;;13.00;99.90;;;;;;5034627;28;20498;-68
2021/10/28 16:29:06;;;;;;;11.70;8.30;;;12.90;99.90;;;;;;5034650;28;20333;-67
2021/10/28 16:31:32;;;;;;;9.95;5.60;;;12.70;99.90;;;;;;5035048;28;20452;-68
2021/10/28 16:33:58;;;;;;;10.88;6.85;;;12.60;99.90;;;;;;5034750;28;20175;-69
2021/10/28 16:36:25;;;;;;;7.10;6.33;;;12.60;99.90;;;;;;5034416;28;20191;-70
2021/10/28 16:38:52;;;;;;;5.55;5.15;;;12.50;99.90;;;;;;5034757;28;20190;-70
2021/10/28 16:41:18;;;;;;;7.68;6.53;;;12.50;99.90;;;;;;5034707;28;20180;-68
2021/10/28 16:43:44;;;;;;;6.77;5.70;;;12.40;99.90;;;;;;5034728;28;20164;-70
2021/10/28 16:46:10;;;;;;;10.80;7.70;;;12.30;99.90;;;;;;5034752;28;20432;-66
2021/10/28 16:48:36;;;;;;;7.20;5.73;;;12.20;99.90;;;;;;5034267;28;20216;-66
2021/10/28 16:51:03;;;;;;;7.43;5.85;;;12.20;99.90;;;;;;5034534;28;20194;-66
2021/10/28 16:53:29;;;;;;;7.25;6.00;;;12.10;99.90;;;;;;5034723;28;20184;-67
2021/10/28 16:55:54;;;;;;;8.20;6.50;;;12.00;99.90;;;;;;5034133;28;20530;-66
2021/10/28 16:58:20;;;;;;;11.43;7.27;;;12.00;99.90;;;;;;5033352;28;20190;-67
2021/10/28 17:00:49;;;;;;;8.03;5.63;;;11.90;99.90;;;;;;5034600;28;20190;-66
2021/10/28 17:03:15;;;;;;;7.97;7.28;;;11.80;99.90;;;;;;5034577;28;20531;-66
2021/10/28 17:05:42;;;;;;;23.13;19.40;;;11.70;99.90;;;;;;5034433;28;20187;-65
2021/10/28 17:08:08;;;;;;;21.45;16.80;;;11.60;99.90;;;;;;5032802;28;20190;-65
2021/10/28 17:10:34;;;;;;;27.05;18.88;;;11.50;99.90;;;;;;5033909;28;20637;-66
2021/10/28 17:13:00;;;;;;;19.27;13.83;;;11.40;99.90;;;;;;5034373;28;20244;-66
2021/10/28 17:15:26;;;;;;;17.67;13.60;;;11.20;99.90;;;;;;5034134;28;20185;-66
2021/10/28 17:17:52;;;;;;;15.40;11.17;;;11.10;99.90;;;;;;5033649;28;20284;-66
2021/10/28 17:20:19;;;;;;;11.87;8.77;;;11.00;99.90;;;;;;5034287;28;20178;-65
2021/10/28 17:22:45;;;;;;;6.70;5.90;;;10.90;99.90;;;;;;5033671;28;20982;-66
2021/10/28 17:25:18;;;;;;;7.73;6.10;;;10.80;99.90;;;;;;5034166;28;20166;-65
2021/10/28 17:27:46;;;;;;;5.43;4.93;;;10.70;99.90;;;;;;5032943;28;20432;-65
2021/10/28 17:30:12;;;;;;;4.22;3.83;;;10.60;99.90;;;;;;5033919;28;20181;-66
2021/10/28 17:32:40;;;;;;;6.28;5.53;;;10.60;99.90;;;;;;5033793;28;20284;-66
2021/10/28 17:35:07;;;;;;;6.18;4.78;;;10.60;99.90;;;;;;5034107;28;20170;-66
2021/10/28 17:37:33;;;;;;;5.65;4.20;;;10.50;99.90;;;;;;5033401;28;20570;-66
2021/10/28 17:39:58;;;;;;;5.93;5.40;;;10.50;99.90;;;;;;5033512;28;20167;-66
2021/10/28 17:42:24;;;;;;;5.57;3.90;;;10.40;99.90;;;;;;5033917;28;20555;-66
2021/10/28 17:45:00;;;;;;;5.60;4.30;;;10.40;99.90;;;;;;5033858;28;20186;-66
2021/10/28 17:47:27;;;;;;;5.00;4.50;;;10.40;99.90;;;;;;5033395;28;20198;-67
2021/10/28 17:49:55;;;;;;;4.05;3.60;;;10.30;99.90;;;;;;5033692;28;20175;-66
2021/10/28 17:52:21;;;;;;;4.38;3.83;;;10.20;99.90;;;;;;5033417;28;20210;-66
2021/10/28 17:54:47;;;;;;;4.10;3.70;;;10.10;99.90;;;;;;5033844;28;20173;-67
2021/10/28 17:57:14;;;;;;;4.20;3.90;;;10.10;99.90;;;;;;5015280;28;20409;-66
2021/10/28 17:59:42;;;;;;;5.97;4.07;;;10.10;99.90;;;;;;5033292;28;20162;-66
2021/10/28 18:02:07;;;;;;;5.93;5.10;;;10.00;99.90;;;;;;5033237;28;20181;-66
2021/10/28 18:04:33;;;;;;;3.60;3.30;;;10.00;99.90;;;;;;5033549;28;20169;-66
2021/10/28 18:06:59;;;;;;;4.40;3.70;;;9.90;99.90;;;;;;5033017;28;20638;-65
2021/10/28 18:09:26;;;;;;;4.20;3.80;;;9.90;99.90;;;;;;5032716;28;20202;-65
2021/10/28 18:11:53;;;;;;;3.80;3.38;;;9.90;99.90;;;;;;5033383;28;20202;-67
2021/10/28 18:14:21;;;;;;;4.72;4.03;;;9.80;99.90;;;;;;5032000;28;20174;-64
2021/10/28 18:16:47;;;;;;;4.75;4.38;;;9.80;99.90;;;;;;4998847;28;20302;-66
2021/10/28 18:19:13;;;;;;;4.60;3.83;;;9.70;99.90;;;;;;5033092;28;20186;-66
2021/10/28 18:21:45;;;;;;;4.22;3.83;;;9.70;99.90;;;;;;4999333;28;20274;-66
2021/10/28 18:24:11;;;;;;;4.28;3.95;;;9.70;99.90;;;;;;5032842;28;20185;-66
2021/10/28 18:26:37;;;;;;;5.05;4.60;;;9.70;99.90;;;;;;5032938;28;20197;-66
2021/10/28 18:29:03;;;;;;;4.33;3.33;;;9.60;99.90;;;;;;5032280;28;20233;-66
2021/10/28 18:31:29;;;;;;;3.17;2.92;;;9.50;99.90;;;;;;5032607;28;20452;-66
2021/10/28 18:34:00;;;;;;;4.82;4.25;;;9.50;99.90;;;;;;5032649;28;20165;-65
2021/10/28 18:36:30;;;;;;;5.32;4.70;;;9.40;99.90;;;;;;5032125;28;20189;-65
2021/10/28 18:38:56;;;;;;;5.88;4.63;;;9.40;99.90;;;;;;5032460;28;20324;-65
2021/10/28 18:41:22;;;;;;;5.77;4.90;;;9.30;99.90;;;;;;5032629;28;20952;-64
2021/10/28 18:43:51;;;;;;;5.95;5.18;;;9.30;99.90;;;;;;5032489;28;20170;-64
2021/10/28 18:46:21;;;;;;;4.60;4.20;;;9.30;99.90;;;;;;5032133;28;20654;-64
2021/10/28 18:48:51;;;;;;;4.13;3.70;;;9.20;99.90;;;;;;5032399;28;20205;-65
2021/10/28 18:51:18;;;;;;;5.50;4.63;;;9.20;99.90;;;;;;5032387;28;20332;-65
2021/10/28 18:53:46;;;;;;;6.28;5.38;;;9.20;99.90;;;;;;5032340;28;20615;-65
2021/10/28 18:56:15;;;;;;;5.10;4.40;;;9.20;99.90;;;;;;5031040;28;20174;-64
2021/10/28 18:58:43;;;;;;;5.10;4.45;;;9.20;99.90;;;;;;5029797;28;20186;-65
2021/10/28 19:01:10;;;;;;;7.25;5.13;;;9.10;99.90;;;;;;5031235;28;20244;-65
2021/10/28 19:03:40;;;;;;;5.00;3.90;;;9.10;99.90;;;;;;5014590;28;20705;-65
2021/10/28 19:06:08;;;;;;;6.45;5.70;;;9.00;99.90;;;;;;5032334;28;20580;-65
2021/10/28 19:08:39;;;;;;;5.90;5.00;;;9.00;99.90;;;;;;5032213;28;20597;-65
2021/10/28 19:11:07;;;;;;;5.70;4.65;;;8.90;99.90;;;;;;5012267;28;20237;-66
2021/10/28 19:13:34;;;;;;;4.70;4.20;;;8.80;99.90;;;;;;5009802;28;20174;-66
2021/10/28 19:16:00;;;;;;;4.18;3.75;;;8.80;99.90;;;;;;5013058;28;20182;-66
2021/10/28 19:18:26;;;;;;;4.50;4.20;;;8.70;99.90;;;;;;5011630;28;20190;-67
2021/10/28 19:20:52;;;;;;;5.47;4.90;;;8.60;99.90;;;;;;5014844;28;20171;-66
2021/10/28 19:23:17;;;;;;;5.38;4.63;;;8.70;99.90;;;;;;5025886;28;20182;-65
2021/10/28 19:25:43;;;;;;;6.70;4.03;;;8.60;99.90;;;;;;5033105;28;20199;-66
2021/10/28 19:28:09;;;;;;;6.30;5.70;;;8.50;99.90;;;;;;5034172;28;20285;-66
2021/10/28 19:30:48;;;;;;;9.60;5.93;;;8.50;99.90;;;;;;5034679;28;20177;-66
2021/10/28 19:33:21;;;;;;;5.40;4.82;;;8.50;99.90;;;;;;5034699;28;20420;-66
2021/10/28 19:35:54;;;;;;;4.85;4.30;;;8.50;99.90;;;;;;5034760;28;20174;-65
2021/10/28 19:46:33;;;;;;;6.30;4.63;;;8.50;99.90;;;;;;5035581;28;20209;-66
2021/10/28 19:49:00;;;;;;;7.37;6.03;;;8.50;99.90;;;;;;5035831;28;20222;-66
2021/10/28 19:51:27;;;;;;;5.97;4.45;;;8.50;99.90;;;;;;5035733;28;20308;-66
2021/10/28 19:53:53;;;;;;;4.78;4.28;;;8.40;99.90;;;;;;5035874;28;20256;-66
2021/10/28 19:56:20;;;;;;;4.75;4.30;;;8.40;99.90;;;;;;5035225;28;20600;-66
2021/10/28 19:58:55;;;;;;;6.97;5.20;;;8.40;99.90;;;;;;5035853;28;20557;-66
2021/10/28 20:20:08;;;;;;;8.50;6.00;;;8.10;99.90;;;;;;5035386;28;20191;-66
2021/10/28 20:22:45;;;;;;;6.60;5.90;;;8.00;99.90;;;;;;5035438;28;20176;-66
2021/10/28 20:25:15;;;;;;;4.50;4.10;;;7.90;99.90;;;;;;5035579;28;20196;-66
2021/10/28 20:27:41;;;;;;;6.55;5.18;;;7.90;99.90;;;;;;5034931;28;20580;-66
2021/10/28 20:30:12;;;;;;;7.50;5.88;;;7.90;99.90;;;;;;5035558;28;20299;-66
2021/10/28 20:32:38;;;;;;;8.93;4.95;;;7.80;99.90;;;;;;5034947;28;20205;-66
2021/10/28 20:37:44;;;;;;;5.32;4.43;;;7.80;99.90;;;;;;5034618;28;20394;-65
2021/10/28 20:40:11;;;;;;;5.65;4.65;;;7.70;99.90;;;;;;5035654;28;20255;-66
2021/10/28 20:42:37;;;;;;;7.97;6.40;;;7.70;99.90;;;;;;5033696;28;20589;-66
2021/10/28 20:45:12;;;;;;;7.47;5.47;;;7.70;99.90;;;;;;5033946;28;20180;-66
2021/10/28 20:47:41;;;;;;;6.80;5.22;;;7.70;99.90;;;;;;5034682;28;20207;-65
2021/10/28 20:50:12;;;;;;;5.60;4.95;;;7.70;99.90;;;;;;5035595;28;20230;-66
2021/10/28 20:52:41;;;;;;;8.07;4.63;;;7.60;99.90;;;;;;5034992;28;20195;-65
2021/10/28 20:55:07;;;;;;;6.40;5.80;;;7.60;99.90;;;;;;5034814;28;20221;-66
2021/10/28 20:57:35;;;;;;;7.47;6.22;;;7.50;99.90;;;;;;5034608;28;20243;-66
2021/10/28 21:00:07;;;;;;;7.55;5.40;;;7.50;99.90;;;;;;5034711;28;20178;-66
2021/10/28 21:02:34;;;;;;;5.38;4.80;;;7.40;99.90;;;;;;5035111;28;20177;-65
2021/10/28 21:04:59;;;;;;;6.82;6.00;;;7.40;99.90;;;;;;5034671;28;20173;-64
2021/10/28 21:07:27;;;;;;;8.87;7.90;;;7.40;99.90;;;;;;5034200;28;20597;-66
2021/10/28 21:09:53;;;;;;;8.65;6.88;;;7.40;99.90;;;;;;5034660;28;20427;-66
2021/10/28 21:12:19;;;;;;;8.27;6.13;;;7.30;99.90;;;;;;5034577;28;20229;-67
2021/10/28 21:14:46;;;;;;;8.93;8.07;;;7.30;99.90;;;;;;5033611;28;20525;-66
2021/10/28 21:17:11;;;;;;;6.97;5.22;;;7.30;99.90;;;;;;5032096;28;20550;-66
2021/10/28 21:19:37;;;;;;;5.10;4.67;;;7.30;99.90;;;;;;5033932;28;20173;-69
2021/10/28 21:22:03;;;;;;;6.80;5.50;;;7.20;99.90;;;;;;5051935;28;20181;-69
2021/10/28 21:24:32;;;;;;;8.40;6.30;;;7.20;99.90;;;;;;5054309;28;20181;-69
2021/10/28 21:26:59;;;;;;;7.80;6.90;;;7.20;99.90;;;;;;5053529;28;20177;-65
2021/10/28 21:29:24;;;;;;;6.68;5.75;;;7.20;99.90;;;;;;5053909;28;20183;-65
2021/10/28 21:31:50;;;;;;;7.00;6.00;;;7.20;99.90;;;;;;5054023;28;20202;-65
2021/10/28 21:34:16;;;;;;;9.67;8.10;;;7.20;99.90;;;;;;5054083;28;20259;-64
2021/10/28 21:36:41;;;;;;;10.00;7.50;;;7.10;99.90;;;;;;5053650;28;20173;-65
2021/10/28 21:39:07;;;;;;;8.50;6.30;;;7.10;99.90;;;;;;5053967;28;20191;-64
2021/10/28 21:41:33;;;;;;;8.13;6.10;;;7.10;99.90;;;;;;5053896;28;20165;-64
2021/10/28 21:44:00;;;;;;;6.27;5.47;;;7.10;99.90;;;;;;5053262;28;20701;-63
2021/10/28 21:46:30;;;;;;;7.65;6.22;;;7.10;99.90;;;;;;5053104;28;20191;-64
2021/10/28 21:48:57;;;;;;;11.35;7.60;;;7.10;99.90;;;;;;5053708;28;20197;-63
2021/10/28 21:51:24;;;;;;;8.93;6.00;;;7.10;99.90;;;;;;5053717;28;20631;-63
2021/10/28 21:53:51;;;;;;;7.28;6.57;;;7.10;99.90;;;;;;5053463;28;20172;-63
2021/10/28 22:04:07;;;;;;;7.37;5.70;;;7.00;99.90;;;;;;5053389;28;20663;-63
2021/10/28 22:25:31;;;;;;;9.07;6.07;;;6.80;99.90;;;;;;5033455;28;20182;-64